sensor_id;sensor_type;location;lat;lon;timestamp;P1;durP1;ratioP1;P2;durP2;ratioP2
64560;SDS011;50960;46.838;16.838;2023-12-04T00:01:21;24.23;;;21.67;;
64560;SDS011;50960;46.838;16.838;2023-12-04T00:03:48;23.80;;;21.35;;
64560;SDS011;50960;46.838;16.838;2023-12-04T00:06:14;23.95;;;21.55;;
64560;SDS011;50960;46.838;16.838;2023-12-04T00:08:40;22.67;;;20.27;;
64560;SDS011;50960;46.838;16.838;2023-12-04T00:11:07;23.30;;;20.73;;
64560;SDS011;50960;46.838;16.838;2023-12-04T00:13:33;19.45;;;17.55;;
64560;SDS011;50960;46.838;16.838;2023-12-04T00:16:00;18.00;;;16.10;;
64560;SDS011;50960;46.838;16.838;2023-12-04T00:18:26;16.35;;;14.75;;
64560;SDS011;50960;46.838;16.838;2023-12-04T00:20:52;12.88;;;11.65;;
64560;SDS011;50960;46.838;16.838;2023-12-04T00:23:19;11.60;;;10.50;;
64560;SDS011;50960;46.838;16.838;2023-12-04T00:25:45;12.05;;;10.93;;
64560;SDS011;50960;46.838;16.838;2023-12-04T00:28:11;12.15;;;11.05;;
64560;SDS011;50960;46.838;16.838;2023-12-04T00:30:37;12.40;;;11.27;;
64560;SDS011;50960;46.838;16.838;2023-12-04T00:33:04;12.90;;;11.70;;
64560;SDS011;50960;46.838;16.838;2023-12-04T00:35:30;13.30;;;12.07;;
64560;SDS011;50960;46.838;16.838;2023-12-04T00:37:56;13.65;;;12.35;;
64560;SDS011;50960;46.838;16.838;2023-12-04T00:40:23;13.10;;;11.85;;
64560;SDS011;50960;46.838;16.838;2023-12-04T00:42:49;13.98;;;12.57;;
64560;SDS011;50960;46.838;16.838;2023-12-04T00:45:15;13.32;;;12.02;;
64560;SDS011;50960;46.838;16.838;2023-12-04T00:47:42;12.98;;;11.80;;
64560;SDS011;50960;46.838;16.838;2023-12-04T00:50:08;12.75;;;11.55;;
64560;SDS011;50960;46.838;16.838;2023-12-04T00:52:34;13.48;;;12.18;;
64560;SDS011;50960;46.838;16.838;2023-12-04T00:55:01;13.40;;;12.20;;
64560;SDS011;50960;46.838;16.838;2023-12-04T00:57:27;13.70;;;12.40;;
64560;SDS011;50960;46.838;16.838;2023-12-04T00:59:53;17.40;;;15.70;;
64560;SDS011;50960;46.838;16.838;2023-12-04T01:02:19;19.63;;;17.65;;
64560;SDS011;50960;46.838;16.838;2023-12-04T01:04:46;14.48;;;13.07;;
64560;SDS011;50960;46.838;16.838;2023-12-04T01:07:12;14.20;;;12.80;;
64560;SDS011;50960;46.838;16.838;2023-12-04T01:09:38;12.50;;;11.30;;
64560;SDS011;50960;46.838;16.838;2023-12-04T01:12:05;12.80;;;11.60;;
64560;SDS011;50960;46.838;16.838;2023-12-04T01:14:31;12.52;;;11.43;;
64560;SDS011;50960;46.838;16.838;2023-12-04T01:16:58;11.95;;;10.88;;
64560;SDS011;50960;46.838;16.838;2023-12-04T01:19:24;11.90;;;10.80;;
64560;SDS011;50960;46.838;16.838;2023-12-04T01:21:50;11.80;;;10.70;;
64560;SDS011;50960;46.838;16.838;2023-12-04T01:24:17;12.23;;;11.00;;
64560;SDS011;50960;46.838;16.838;2023-12-04T01:26:43;11.90;;;10.88;;
64560;SDS011;50960;46.838;16.838;2023-12-04T01:29:09;11.02;;;10.02;;
64560;SDS011;50960;46.838;16.838;2023-12-04T01:31:35;10.70;;;9.80;;
64560;SDS011;50960;46.838;16.838;2023-12-04T01:34:02;10.85;;;9.95;;
64560;SDS011;50960;46.838;16.838;2023-12-04T01:36:28;10.52;;;9.60;;
64560;SDS011;50960;46.838;16.838;2023-12-04T01:38:54;10.38;;;9.48;;
64560;SDS011;50960;46.838;16.838;2023-12-04T01:41:21;9.43;;;8.63;;
64560;SDS011;50960;46.838;16.838;2023-12-04T01:43:48;10.27;;;9.38;;
64560;SDS011;50960;46.838;16.838;2023-12-04T01:46:15;9.90;;;9.10;;
64560;SDS011;50960;46.838;16.838;2023-12-04T01:48:44;9.50;;;8.70;;
64560;SDS011;50960;46.838;16.838;2023-12-04T01:51:12;9.73;;;8.82;;
64560;SDS011;50960;46.838;16.838;2023-12-04T01:53:39;9.52;;;8.73;;
64560;SDS011;50960;46.838;16.838;2023-12-04T01:56:07;9.57;;;8.77;;
64560;SDS011;50960;46.838;16.838;2023-12-04T01:58:34;9.13;;;8.43;;
64560;SDS011;50960;46.838;16.838;2023-12-04T02:01:00;9.52;;;8.73;;
64560;SDS011;50960;46.838;16.838;2023-12-04T02:03:27;9.57;;;8.77;;
64560;SDS011;50960;46.838;16.838;2023-12-04T02:05:53;9.07;;;8.30;;
64560;SDS011;50960;46.838;16.838;2023-12-04T02:08:22;8.82;;;8.02;;
64560;SDS011;50960;46.838;16.838;2023-12-04T02:10:48;9.30;;;8.50;;
64560;SDS011;50960;46.838;16.838;2023-12-04T02:13:15;9.07;;;8.25;;
64560;SDS011;50960;46.838;16.838;2023-12-04T02:15:41;9.85;;;8.95;;
64560;SDS011;50960;46.838;16.838;2023-12-04T02:18:07;9.77;;;8.88;;
64560;SDS011;50960;46.838;16.838;2023-12-04T02:20:34;9.82;;;8.93;;
64560;SDS011;50960;46.838;16.838;2023-12-04T02:23:01;10.32;;;9.43;;
64560;SDS011;50960;46.838;16.838;2023-12-04T02:25:28;9.43;;;8.63;;
64560;SDS011;50960;46.838;16.838;2023-12-04T02:27:56;9.27;;;8.48;;
64560;SDS011;50960;46.838;16.838;2023-12-04T02:30:26;8.73;;;8.02;;
64560;SDS011;50960;46.838;16.838;2023-12-04T02:32:57;8.63;;;7.93;;
64560;SDS011;50960;46.838;16.838;2023-12-04T02:35:24;8.90;;;8.10;;
64560;SDS011;50960;46.838;16.838;2023-12-04T02:37:55;8.30;;;7.60;;
64560;SDS011;50960;46.838;16.838;2023-12-04T02:40:24;8.77;;;8.02;;
64560;SDS011;50960;46.838;16.838;2023-12-04T02:42:51;8.55;;;7.85;;
64560;SDS011;50960;46.838;16.838;2023-12-04T02:45:17;8.18;;;7.50;;
64560;SDS011;50960;46.838;16.838;2023-12-04T02:47:43;8.55;;;7.85;;
64560;SDS011;50960;46.838;16.838;2023-12-04T02:50:10;9.05;;;8.25;;
64560;SDS011;50960;46.838;16.838;2023-12-04T02:52:36;8.60;;;7.90;;
64560;SDS011;50960;46.838;16.838;2023-12-04T02:55:02;8.40;;;7.70;;
64560;SDS011;50960;46.838;16.838;2023-12-04T02:57:29;8.38;;;7.68;;
64560;SDS011;50960;46.838;16.838;2023-12-04T02:59:55;7.40;;;6.80;;
64560;SDS011;50960;46.838;16.838;2023-12-04T03:02:21;7.97;;;7.38;;
64560;SDS011;50960;46.838;16.838;2023-12-04T03:04:48;7.95;;;7.25;;
64560;SDS011;50960;46.838;16.838;2023-12-04T03:07:14;7.78;;;7.18;;
64560;SDS011;50960;46.838;16.838;2023-12-04T03:09:40;7.70;;;7.10;;
64560;SDS011;50960;46.838;16.838;2023-12-04T03:12:06;8.23;;;7.53;;
64560;SDS011;50960;46.838;16.838;2023-12-04T03:14:33;7.90;;;7.30;;
64560;SDS011;50960;46.838;16.838;2023-12-04T03:16:59;8.70;;;7.85;;
64560;SDS011;50960;46.838;16.838;2023-12-04T03:19:25;8.55;;;7.75;;
64560;SDS011;50960;46.838;16.838;2023-12-04T03:21:51;8.25;;;7.47;;
64560;SDS011;50960;46.838;16.838;2023-12-04T03:24:18;8.15;;;7.53;;
64560;SDS011;50960;46.838;16.838;2023-12-04T03:26:44;8.05;;;7.40;;
64560;SDS011;50960;46.838;16.838;2023-12-04T03:29:10;8.05;;;7.35;;
64560;SDS011;50960;46.838;16.838;2023-12-04T03:31:38;8.23;;;7.53;;
64560;SDS011;50960;46.838;16.838;2023-12-04T03:34:04;8.27;;;7.57;;
64560;SDS011;50960;46.838;16.838;2023-12-04T03:36:30;8.18;;;7.43;;
64560;SDS011;50960;46.838;16.838;2023-12-04T03:38:56;8.13;;;7.45;;
64560;SDS011;50960;46.838;16.838;2023-12-04T03:41:23;8.93;;;7.32;;
64560;SDS011;50960;46.838;16.838;2023-12-04T03:43:49;8.73;;;7.93;;
64560;SDS011;50960;46.838;16.838;2023-12-04T03:46:15;8.15;;;7.45;;
64560;SDS011;50960;46.838;16.838;2023-12-04T03:48:42;8.65;;;7.95;;
64560;SDS011;50960;46.838;16.838;2023-12-04T03:51:08;7.82;;;7.22;;
64560;SDS011;50960;46.838;16.838;2023-12-04T03:53:34;9.05;;;8.35;;
64560;SDS011;50960;46.838;16.838;2023-12-04T03:56:01;9.00;;;8.20;;
64560;SDS011;50960;46.838;16.838;2023-12-04T03:58:27;8.57;;;7.80;;
64560;SDS011;50960;46.838;16.838;2023-12-04T04:00:53;8.40;;;7.70;;
64560;SDS011;50960;46.838;16.838;2023-12-04T04:03:20;8.85;;;8.05;;
64560;SDS011;50960;46.838;16.838;2023-12-04T04:05:46;9.02;;;8.05;;
64560;SDS011;50960;46.838;16.838;2023-12-04T04:08:12;9.07;;;8.18;;
64560;SDS011;50960;46.838;16.838;2023-12-04T04:10:38;8.52;;;7.82;;
64560;SDS011;50960;46.838;16.838;2023-12-04T04:13:04;8.45;;;7.70;;
64560;SDS011;50960;46.838;16.838;2023-12-04T04:15:31;8.38;;;7.68;;
64560;SDS011;50960;46.838;16.838;2023-12-04T04:17:57;10.00;;;9.07;;
64560;SDS011;50960;46.838;16.838;2023-12-04T04:20:24;10.10;;;9.20;;
64560;SDS011;50960;46.838;16.838;2023-12-04T04:22:50;10.18;;;9.27;;
64560;SDS011;50960;46.838;16.838;2023-12-04T04:25:17;10.73;;;9.73;;
64560;SDS011;50960;46.838;16.838;2023-12-04T04:27:44;10.55;;;9.55;;
64560;SDS011;50960;46.838;16.838;2023-12-04T04:30:10;10.48;;;9.48;;
64560;SDS011;50960;46.838;16.838;2023-12-04T04:32:39;10.85;;;9.82;;
64560;SDS011;50960;46.838;16.838;2023-12-04T04:35:05;10.32;;;9.43;;
64560;SDS011;50960;46.838;16.838;2023-12-04T04:37:32;10.65;;;9.55;;
64560;SDS011;50960;46.838;16.838;2023-12-04T04:39:58;10.15;;;9.25;;
64560;SDS011;50960;46.838;16.838;2023-12-04T04:42:24;10.00;;;9.10;;
64560;SDS011;50960;46.838;16.838;2023-12-04T04:44:50;9.85;;;8.95;;
64560;SDS011;50960;46.838;16.838;2023-12-04T04:47:17;9.85;;;8.95;;
64560;SDS011;50960;46.838;16.838;2023-12-04T04:49:43;10.48;;;9.57;;
64560;SDS011;50960;46.838;16.838;2023-12-04T04:52:09;10.60;;;9.70;;
64560;SDS011;50960;46.838;16.838;2023-12-04T04:54:35;9.95;;;8.95;;
64560;SDS011;50960;46.838;16.838;2023-12-04T04:57:01;19.63;;;17.63;;
64560;SDS011;50960;46.838;16.838;2023-12-04T04:59:28;12.10;;;11.00;;
64560;SDS011;50960;46.838;16.838;2023-12-04T05:01:56;10.60;;;9.70;;
64560;SDS011;50960;46.838;16.838;2023-12-04T05:04:22;10.10;;;9.20;;
64560;SDS011;50960;46.838;16.838;2023-12-04T05:06:48;10.48;;;9.57;;
64560;SDS011;50960;46.838;16.838;2023-12-04T05:09:15;10.38;;;9.43;;
64560;SDS011;50960;46.838;16.838;2023-12-04T05:11:41;9.75;;;8.85;;
64560;SDS011;50960;46.838;16.838;2023-12-04T05:14:07;10.45;;;9.55;;
64560;SDS011;50960;46.838;16.838;2023-12-04T05:16:35;10.20;;;9.30;;
64560;SDS011;50960;46.838;16.838;2023-12-04T05:19:01;10.35;;;9.38;;
64560;SDS011;50960;46.838;16.838;2023-12-04T05:21:27;10.60;;;9.60;;
64560;SDS011;50960;46.838;16.838;2023-12-04T05:23:54;10.00;;;9.20;;
64560;SDS011;50960;46.838;16.838;2023-12-04T05:26:20;10.80;;;9.88;;
64560;SDS011;50960;46.838;16.838;2023-12-04T05:28:46;10.43;;;9.52;;
64560;SDS011;50960;46.838;16.838;2023-12-04T05:31:13;10.00;;;9.13;;
64560;SDS011;50960;46.838;16.838;2023-12-04T05:33:39;10.57;;;9.68;;
64560;SDS011;50960;46.838;16.838;2023-12-04T05:36:05;10.77;;;9.88;;
64560;SDS011;50960;46.838;16.838;2023-12-04T05:38:32;10.57;;;9.63;;
64560;SDS011;50960;46.838;16.838;2023-12-04T05:40:59;12.18;;;10.90;;
64560;SDS011;50960;46.838;16.838;2023-12-04T05:43:25;10.95;;;9.98;;
64560;SDS011;50960;46.838;16.838;2023-12-04T05:45:51;12.00;;;10.95;;
64560;SDS011;50960;46.838;16.838;2023-12-04T05:48:18;12.05;;;10.95;;
64560;SDS011;50960;46.838;16.838;2023-12-04T05:50:44;11.35;;;10.35;;
64560;SDS011;50960;46.838;16.838;2023-12-04T05:53:10;11.85;;;10.77;;
64560;SDS011;50960;46.838;16.838;2023-12-04T05:55:37;12.68;;;11.57;;
64560;SDS011;50960;46.838;16.838;2023-12-04T05:58:05;11.75;;;10.75;;
64560;SDS011;50960;46.838;16.838;2023-12-04T06:00:31;12.20;;;11.10;;
64560;SDS011;50960;46.838;16.838;2023-12-04T06:02:57;13.35;;;12.10;;
64560;SDS011;50960;46.838;16.838;2023-12-04T06:05:24;13.82;;;12.63;;
64560;SDS011;50960;46.838;16.838;2023-12-04T06:07:50;14.25;;;12.93;;
64560;SDS011;50960;46.838;16.838;2023-12-04T06:10:17;13.32;;;12.02;;
64560;SDS011;50960;46.838;16.838;2023-12-04T06:12:43;13.02;;;11.73;;
64560;SDS011;50960;46.838;16.838;2023-12-04T06:15:10;12.43;;;11.23;;
64560;SDS011;50960;46.838;16.838;2023-12-04T06:17:36;12.45;;;11.25;;
64560;SDS011;50960;46.838;16.838;2023-12-04T06:20:03;13.73;;;12.32;;
64560;SDS011;50960;46.838;16.838;2023-12-04T06:22:29;15.13;;;13.73;;
64560;SDS011;50960;46.838;16.838;2023-12-04T06:24:56;15.90;;;14.30;;
64560;SDS011;50960;46.838;16.838;2023-12-04T06:27:23;15.80;;;14.15;;
64560;SDS011;50960;46.838;16.838;2023-12-04T06:29:49;17.40;;;15.15;;
64560;SDS011;50960;46.838;16.838;2023-12-04T06:32:16;18.52;;;15.88;;
64560;SDS011;50960;46.838;16.838;2023-12-04T06:34:44;23.58;;;19.65;;
64560;SDS011;50960;46.838;16.838;2023-12-04T06:37:11;18.08;;;16.15;;
64560;SDS011;50960;46.838;16.838;2023-12-04T06:39:39;21.88;;;17.45;;
64560;SDS011;50960;46.838;16.838;2023-12-04T06:42:08;19.92;;;16.67;;
64560;SDS011;50960;46.838;16.838;2023-12-04T06:44:35;18.70;;;16.25;;
64560;SDS011;50960;46.838;16.838;2023-12-04T06:47:02;18.27;;;16.27;;
64560;SDS011;50960;46.838;16.838;2023-12-04T06:49:30;18.02;;;16.08;;
64560;SDS011;50960;46.838;16.838;2023-12-04T06:51:58;17.67;;;15.57;;
64560;SDS011;50960;46.838;16.838;2023-12-04T06:54:24;18.25;;;16.25;;
64560;SDS011;50960;46.838;16.838;2023-12-04T06:56:51;20.42;;;16.98;;
64560;SDS011;50960;46.838;16.838;2023-12-04T06:59:17;18.05;;;15.95;;
64560;SDS011;50960;46.838;16.838;2023-12-04T07:01:44;19.10;;;15.98;;
64560;SDS011;50960;46.838;16.838;2023-12-04T07:04:11;19.08;;;16.73;;
64560;SDS011;50960;46.838;16.838;2023-12-04T07:06:37;20.45;;;17.90;;
64560;SDS011;50960;46.838;16.838;2023-12-04T07:09:04;18.70;;;16.70;;
64560;SDS011;50960;46.838;16.838;2023-12-04T07:11:33;18.08;;;16.17;;
64560;SDS011;50960;46.838;16.838;2023-12-04T07:14:00;17.48;;;15.40;;
64560;SDS011;50960;46.838;16.838;2023-12-04T07:16:27;19.30;;;17.30;;
64560;SDS011;50960;46.838;16.838;2023-12-04T07:18:54;21.38;;;18.77;;
64560;SDS011;50960;46.838;16.838;2023-12-04T07:21:22;24.17;;;19.98;;
64560;SDS011;50960;46.838;16.838;2023-12-04T07:23:48;21.88;;;17.25;;
64560;SDS011;50960;46.838;16.838;2023-12-04T07:26:15;22.83;;;17.90;;
64560;SDS011;50960;46.838;16.838;2023-12-04T07:28:41;19.60;;;16.27;;
64560;SDS011;50960;46.838;16.838;2023-12-04T07:31:08;17.45;;;15.65;;
64560;SDS011;50960;46.838;16.838;2023-12-04T07:33:34;16.73;;;14.93;;
64560;SDS011;50960;46.838;16.838;2023-12-04T07:36:01;17.10;;;15.32;;
64560;SDS011;50960;46.838;16.838;2023-12-04T07:38:27;17.27;;;15.50;;
64560;SDS011;50960;46.838;16.838;2023-12-04T07:40:54;17.55;;;15.77;;
64560;SDS011;50960;46.838;16.838;2023-12-04T07:43:20;18.45;;;15.65;;
64560;SDS011;50960;46.838;16.838;2023-12-04T07:45:47;18.52;;;15.88;;
64560;SDS011;50960;46.838;16.838;2023-12-04T07:48:13;18.67;;;16.75;;
64560;SDS011;50960;46.838;16.838;2023-12-04T07:50:42;19.05;;;17.15;;
64560;SDS011;50960;46.838;16.838;2023-12-04T07:53:08;18.75;;;16.90;;
64560;SDS011;50960;46.838;16.838;2023-12-04T07:55:37;20.92;;;18.77;;
64560;SDS011;50960;46.838;16.838;2023-12-04T07:58:04;19.92;;;18.02;;
64560;SDS011;50960;46.838;16.838;2023-12-04T08:00:31;18.73;;;16.92;;
64560;SDS011;50960;46.838;16.838;2023-12-04T08:02:58;18.33;;;16.58;;
64560;SDS011;50960;46.838;16.838;2023-12-04T08:05:24;18.95;;;17.00;;
64560;SDS011;50960;46.838;16.838;2023-12-04T08:07:52;19.60;;;17.40;;
64560;SDS011;50960;46.838;16.838;2023-12-04T08:10:19;17.73;;;16.02;;
64560;SDS011;50960;46.838;16.838;2023-12-04T08:12:48;18.88;;;16.90;;
64560;SDS011;50960;46.838;16.838;2023-12-04T08:15:14;18.77;;;16.98;;
64560;SDS011;50960;46.838;16.838;2023-12-04T08:17:41;21.73;;;19.55;;
64560;SDS011;50960;46.838;16.838;2023-12-04T08:20:08;20.33;;;18.25;;
64560;SDS011;50960;46.838;16.838;2023-12-04T08:22:39;18.75;;;16.88;;
64560;SDS011;50960;46.838;16.838;2023-12-04T08:25:06;19.25;;;17.42;;
64560;SDS011;50960;46.838;16.838;2023-12-04T08:27:33;19.65;;;17.75;;
64560;SDS011;50960;46.838;16.838;2023-12-04T08:30:00;19.38;;;17.55;;
64560;SDS011;50960;46.838;16.838;2023-12-04T08:32:27;17.45;;;15.75;;
64560;SDS011;50960;46.838;16.838;2023-12-04T08:34:54;18.25;;;16.60;;
64560;SDS011;50960;46.838;16.838;2023-12-04T08:37:21;17.23;;;15.52;;
64560;SDS011;50960;46.838;16.838;2023-12-04T08:39:47;17.05;;;15.38;;
64560;SDS011;50960;46.838;16.838;2023-12-04T08:42:14;16.90;;;15.30;;
64560;SDS011;50960;46.838;16.838;2023-12-04T08:44:41;17.00;;;15.30;;
64560;SDS011;50960;46.838;16.838;2023-12-04T08:47:08;16.60;;;15.00;;
64560;SDS011;50960;46.838;16.838;2023-12-04T08:49:34;18.63;;;16.83;;
64560;SDS011;50960;46.838;16.838;2023-12-04T08:52:01;19.10;;;17.25;;
64560;SDS011;50960;46.838;16.838;2023-12-04T08:54:27;19.42;;;17.52;;
64560;SDS011;50960;46.838;16.838;2023-12-04T08:56:54;17.52;;;15.82;;
64560;SDS011;50960;46.838;16.838;2023-12-04T08:59:22;15.40;;;13.85;;
64560;SDS011;50960;46.838;16.838;2023-12-04T09:01:49;16.63;;;15.02;;
64560;SDS011;50960;46.838;16.838;2023-12-04T09:04:15;17.90;;;16.00;;
64560;SDS011;50960;46.838;16.838;2023-12-04T09:06:42;18.05;;;16.35;;
64560;SDS011;50960;46.838;16.838;2023-12-04T09:09:08;17.00;;;15.38;;
64560;SDS011;50960;46.838;16.838;2023-12-04T09:11:35;17.40;;;15.77;;
64560;SDS011;50960;46.838;16.838;2023-12-04T09:14:01;17.73;;;15.93;;
64560;SDS011;50960;46.838;16.838;2023-12-04T09:16:28;16.92;;;15.32;;
64560;SDS011;50960;46.838;16.838;2023-12-04T09:18:54;15.38;;;13.90;;
64560;SDS011;50960;46.838;16.838;2023-12-04T09:21:20;15.82;;;14.27;;
64560;SDS011;50960;46.838;16.838;2023-12-04T09:23:47;14.88;;;13.48;;
64560;SDS011;50960;46.838;16.838;2023-12-04T09:26:15;15.40;;;13.98;;
64560;SDS011;50960;46.838;16.838;2023-12-04T09:28:42;14.23;;;12.93;;
64560;SDS011;50960;46.838;16.838;2023-12-04T09:31:09;14.85;;;13.43;;
64560;SDS011;50960;46.838;16.838;2023-12-04T09:33:35;15.85;;;14.35;;
64560;SDS011;50960;46.838;16.838;2023-12-04T09:36:02;14.95;;;13.55;;
64560;SDS011;50960;46.838;16.838;2023-12-04T09:38:29;14.48;;;13.07;;
64560;SDS011;50960;46.838;16.838;2023-12-04T09:40:57;14.43;;;12.48;;
64560;SDS011;50960;46.838;16.838;2023-12-04T09:43:25;13.48;;;12.27;;
64560;SDS011;50960;46.838;16.838;2023-12-04T09:45:52;14.43;;;13.13;;
64560;SDS011;50960;46.838;16.838;2023-12-04T09:48:19;14.00;;;12.70;;
64560;SDS011;50960;46.838;16.838;2023-12-04T09:50:47;13.32;;;12.07;;
64560;SDS011;50960;46.838;16.838;2023-12-04T09:53:13;13.70;;;12.40;;
64560;SDS011;50960;46.838;16.838;2023-12-04T09:55:40;13.85;;;12.45;;
64560;SDS011;50960;46.838;16.838;2023-12-04T09:58:07;15.02;;;13.52;;
64560;SDS011;50960;46.838;16.838;2023-12-04T10:00:34;15.38;;;13.98;;
64560;SDS011;50960;46.838;16.838;2023-12-04T10:03:01;14.35;;;12.85;;
64560;SDS011;50960;46.838;16.838;2023-12-04T10:05:29;12.75;;;11.45;;
64560;SDS011;50960;46.838;16.838;2023-12-04T10:07:56;13.65;;;12.25;;
64560;SDS011;50960;46.838;16.838;2023-12-04T10:10:22;15.02;;;13.52;;
64560;SDS011;50960;46.838;16.838;2023-12-04T10:12:49;13.35;;;12.05;;
64560;SDS011;50960;46.838;16.838;2023-12-04T10:15:15;13.48;;;12.18;;
64560;SDS011;50960;46.838;16.838;2023-12-04T10:17:42;13.38;;;11.98;;
64560;SDS011;50960;46.838;16.838;2023-12-04T10:20:10;10.65;;;9.65;;
64560;SDS011;50960;46.838;16.838;2023-12-04T10:22:56;8.45;;;7.72;;
64560;SDS011;50960;46.838;16.838;2023-12-04T10:25:24;9.55;;;8.70;;
64560;SDS011;50960;46.838;16.838;2023-12-04T10:27:51;9.70;;;8.80;;
64560;SDS011;50960;46.838;16.838;2023-12-04T10:30:22;9.52;;;8.35;;
64560;SDS011;50960;46.838;16.838;2023-12-04T10:32:48;9.45;;;8.48;;
64560;SDS011;50960;46.838;16.838;2023-12-04T10:35:15;9.15;;;8.35;;
64560;SDS011;50960;46.838;16.838;2023-12-04T10:37:42;9.20;;;8.30;;
64560;SDS011;50960;46.838;16.838;2023-12-04T10:40:09;9.10;;;8.30;;
64560;SDS011;50960;46.838;16.838;2023-12-04T10:42:36;8.43;;;7.63;;
64560;SDS011;50960;46.838;16.838;2023-12-04T10:45:05;9.63;;;8.82;;
64560;SDS011;50960;46.838;16.838;2023-12-04T10:47:31;9.60;;;8.60;;
64560;SDS011;50960;46.838;16.838;2023-12-04T10:49:59;8.95;;;8.15;;
64560;SDS011;50960;46.838;16.838;2023-12-04T10:52:27;10.73;;;9.77;;
64560;SDS011;50960;46.838;16.838;2023-12-04T10:54:55;10.70;;;9.75;;
64560;SDS011;50960;46.838;16.838;2023-12-04T10:57:27;10.48;;;9.48;;
64560;SDS011;50960;46.838;16.838;2023-12-04T10:59:57;10.05;;;9.15;;
64560;SDS011;50960;46.838;16.838;2023-12-04T11:02:26;10.07;;;9.07;;
64560;SDS011;50960;46.838;16.838;2023-12-04T11:04:54;10.50;;;9.60;;
64560;SDS011;50960;46.838;16.838;2023-12-04T11:07:21;9.13;;;8.32;;
64560;SDS011;50960;46.838;16.838;2023-12-04T11:09:48;10.70;;;9.70;;
64560;SDS011;50960;46.838;16.838;2023-12-04T11:12:17;10.60;;;9.63;;
64560;SDS011;50960;46.838;16.838;2023-12-04T11:14:46;9.40;;;8.60;;
64560;SDS011;50960;46.838;16.838;2023-12-04T11:17:16;11.00;;;10.10;;
64560;SDS011;50960;46.838;16.838;2023-12-04T11:22:42;9.18;;;8.27;;
64560;SDS011;50960;46.838;16.838;2023-12-04T11:25:09;7.03;;;6.38;;
64560;SDS011;50960;46.838;16.838;2023-12-04T11:27:36;6.30;;;5.60;;
64560;SDS011;50960;46.838;16.838;2023-12-04T11:30:03;9.38;;;6.65;;
64560;SDS011;50960;46.838;16.838;2023-12-04T11:32:31;7.32;;;6.60;;
64560;SDS011;50960;46.838;16.838;2023-12-04T11:35:01;7.93;;;7.22;;
64560;SDS011;50960;46.838;16.838;2023-12-04T11:37:28;5.75;;;5.15;;
64560;SDS011;50960;46.838;16.838;2023-12-04T11:39:54;8.52;;;7.80;;
64560;SDS011;50960;46.838;16.838;2023-12-04T11:42:24;8.63;;;7.80;;
64560;SDS011;50960;46.838;16.838;2023-12-04T11:44:57;8.43;;;7.72;;
64560;SDS011;50960;46.838;16.838;2023-12-04T11:49:50;7.20;;;6.50;;
64560;SDS011;50960;46.838;16.838;2023-12-04T11:52:17;7.57;;;6.85;;
64560;SDS011;50960;46.838;16.838;2023-12-04T11:54:59;7.13;;;6.40;;
64560;SDS011;50960;46.838;16.838;2023-12-04T11:57:33;7.32;;;6.63;;
64560;SDS011;50960;46.838;16.838;2023-12-04T12:03:02;4.57;;;4.18;;
64560;SDS011;50960;46.838;16.838;2023-12-04T12:05:31;5.65;;;5.15;;
64560;SDS011;50960;46.838;16.838;2023-12-04T12:07:59;7.10;;;5.63;;
64560;SDS011;50960;46.838;16.838;2023-12-04T12:10:26;4.72;;;4.32;;
64560;SDS011;50960;46.838;16.838;2023-12-04T12:12:53;6.57;;;5.97;;
64560;SDS011;50960;46.838;16.838;2023-12-04T12:15:20;6.38;;;5.78;;
64560;SDS011;50960;46.838;16.838;2023-12-04T12:17:46;6.28;;;5.78;;
64560;SDS011;50960;46.838;16.838;2023-12-04T12:20:13;5.85;;;5.35;;
64560;SDS011;50960;46.838;16.838;2023-12-04T12:22:41;6.50;;;6.00;;
64560;SDS011;50960;46.838;16.838;2023-12-04T12:25:11;6.30;;;5.80;;
64560;SDS011;50960;46.838;16.838;2023-12-04T12:27:38;5.85;;;5.35;;
64560;SDS011;50960;46.838;16.838;2023-12-04T12:30:05;7.13;;;6.63;;
64560;SDS011;50960;46.838;16.838;2023-12-04T12:32:34;6.20;;;5.70;;
64560;SDS011;50960;46.838;16.838;2023-12-04T12:35:03;7.07;;;6.47;;
64560;SDS011;50960;46.838;16.838;2023-12-04T12:37:30;5.32;;;4.75;;
64560;SDS011;50960;46.838;16.838;2023-12-04T12:39:57;6.53;;;6.03;;
64560;SDS011;50960;46.838;16.838;2023-12-04T12:42:24;5.82;;;5.32;;
64560;SDS011;50960;46.838;16.838;2023-12-04T12:44:55;5.90;;;5.40;;
64560;SDS011;50960;46.838;16.838;2023-12-04T12:47:22;6.18;;;5.68;;
64560;SDS011;50960;46.838;16.838;2023-12-04T12:49:49;5.47;;;5.07;;
64560;SDS011;50960;46.838;16.838;2023-12-04T12:52:15;6.13;;;5.63;;
64560;SDS011;50960;46.838;16.838;2023-12-04T12:54:42;6.47;;;5.90;;
64560;SDS011;50960;46.838;16.838;2023-12-04T12:57:10;6.65;;;6.10;;
64560;SDS011;50960;46.838;16.838;2023-12-04T12:59:40;6.70;;;6.10;;
64560;SDS011;50960;46.838;16.838;2023-12-04T13:02:06;5.55;;;5.15;;
64560;SDS011;50960;46.838;16.838;2023-12-04T13:04:36;7.47;;;6.75;;
64560;SDS011;50960;46.838;16.838;2023-12-04T13:07:03;4.40;;;4.00;;
64560;SDS011;50960;46.838;16.838;2023-12-04T13:09:32;6.55;;;5.97;;
64560;SDS011;50960;46.838;16.838;2023-12-04T13:11:58;6.45;;;5.90;;
64560;SDS011;50960;46.838;16.838;2023-12-04T13:14:26;6.40;;;5.80;;
64560;SDS011;50960;46.838;16.838;2023-12-04T13:16:52;6.22;;;5.63;;
64560;SDS011;50960;46.838;16.838;2023-12-04T13:19:20;6.30;;;5.70;;
64560;SDS011;50960;46.838;16.838;2023-12-04T13:21:47;6.25;;;5.75;;
64560;SDS011;50960;46.838;16.838;2023-12-04T13:24:13;6.22;;;5.68;;
64560;SDS011;50960;46.838;16.838;2023-12-04T13:26:40;6.57;;;6.07;;
64560;SDS011;50960;46.838;16.838;2023-12-04T13:29:06;6.90;;;6.30;;
64560;SDS011;50960;46.838;16.838;2023-12-04T13:31:33;6.18;;;5.70;;
64560;SDS011;50960;46.838;16.838;2023-12-04T13:34:00;5.88;;;5.47;;
64560;SDS011;50960;46.838;16.838;2023-12-04T13:36:28;5.30;;;4.90;;
64560;SDS011;50960;46.838;16.838;2023-12-04T13:38:55;5.80;;;5.40;;
64560;SDS011;50960;46.838;16.838;2023-12-04T13:41:22;5.32;;;4.93;;
64560;SDS011;50960;46.838;16.838;2023-12-04T13:44:07;5.45;;;4.95;;
64560;SDS011;50960;46.838;16.838;2023-12-04T13:46:33;5.30;;;4.90;;
64560;SDS011;50960;46.838;16.838;2023-12-04T13:49:00;4.85;;;4.45;;
64560;SDS011;50960;46.838;16.838;2023-12-04T13:51:26;3.95;;;3.65;;
64560;SDS011;50960;46.838;16.838;2023-12-04T13:53:53;5.28;;;4.78;;
64560;SDS011;50960;46.838;16.838;2023-12-04T13:56:27;5.03;;;4.63;;
64560;SDS011;50960;46.838;16.838;2023-12-04T13:59:08;5.38;;;4.93;;
64560;SDS011;50960;46.838;16.838;2023-12-04T14:01:43;6.13;;;5.70;;
64560;SDS011;50960;46.838;16.838;2023-12-04T14:04:10;5.13;;;4.72;;
64560;SDS011;50960;46.838;16.838;2023-12-04T14:06:36;5.78;;;5.20;;
64560;SDS011;50960;46.838;16.838;2023-12-04T14:09:03;5.97;;;5.45;;
64560;SDS011;50960;46.838;16.838;2023-12-04T14:11:38;6.30;;;5.80;;
64560;SDS011;50960;46.838;16.838;2023-12-04T14:14:05;6.32;;;5.75;;
64560;SDS011;50960;46.838;16.838;2023-12-04T14:16:31;5.68;;;5.28;;
64560;SDS011;50960;46.838;16.838;2023-12-04T14:18:58;6.18;;;5.57;;
64560;SDS011;50960;46.838;16.838;2023-12-04T14:21:24;5.80;;;5.30;;
64560;SDS011;50960;46.838;16.838;2023-12-04T14:23:51;5.90;;;5.15;;
64560;SDS011;50960;46.838;16.838;2023-12-04T14:26:17;5.55;;;5.15;;
64560;SDS011;50960;46.838;16.838;2023-12-04T14:28:43;5.60;;;5.20;;